Time;durP1;ratioP1;P1;durP2;ratioP2;P2;SDS_P1;SDS_P2;PMS_P1;PMS_P2;Temp;Humidity;BMP_temperature;BMP_pressure;BME280_temperature;BME280_humidity;BME280_pressure;Samples;Min_cycle;Max_cycle;Signal;HPM_P1;HPM_P2
2022/03/09 00:01:35;;;;;;;7.22;4.72;;;;;;;16.50;30.92;93767.91;4918641;29;20058;-85
2022/03/09 00:04:00;;;;;;;6.32;4.63;;;;;;;16.45;30.78;93766.66;4917806;29;20043;-85
2022/03/09 00:06:26;;;;;;;6.60;4.55;;;;;;;16.45;30.71;93770.13;4901248;29;20034;-86
2022/03/09 00:08:51;;;;;;;8.18;4.95;;;;;;;16.42;30.96;93771.13;4933290;29;20036;-85
2022/03/09 00:11:17;;;;;;;5.95;4.22;;;;;;;16.48;31.25;93784.03;4917104;29;20035;-85
2022/03/09 00:13:42;;;;;;;5.97;4.55;;;;;;;16.42;30.98;93773.84;4901359;29;20505;-85
2022/03/09 00:16:08;;;;;;;6.82;4.72;;;;;;;16.42;30.89;93778.56;4901529;29;20036;-85
2022/03/09 00:18:33;;;;;;;6.82;4.70;;;;;;;16.44;31.07;93765.91;4917295;29;20046;-85
2022/03/09 00:20:59;;;;;;;6.85;4.22;;;;;;;16.44;30.69;93770.63;4917557;29;20094;-85
2022/03/09 00:23:24;;;;;;;5.90;4.50;;;;;;;16.41;30.60;93772.34;4948211;29;20511;-89
2022/03/09 00:25:49;;;;;;;6.47;4.30;;;;;;;16.43;30.72;93763.69;4897737;29;20040;-85
2022/03/09 00:28:15;;;;;;;7.30;4.85;;;;;;;16.42;30.89;93764.91;4897688;29;20051;-85
2022/03/09 00:30:40;;;;;;;7.22;4.70;;;;;;;16.42;30.62;93762.94;4883505;29;20039;-85
2022/03/09 00:33:05;;;;;;;5.65;4.20;;;;;;;16.46;30.88;93762.69;4930500;29;20044;-87
2022/03/09 00:35:31;;;;;;;7.43;5.20;;;;;;;16.43;30.77;93767.16;4942747;29;20031;-85
2022/03/09 00:37:56;;;;;;;5.28;4.00;;;;;;;16.40;30.70;93759.94;4901173;29;20034;-85
2022/03/09 00:40:22;;;;;;;6.80;4.88;;;;;;;16.41;30.59;93766.88;4916850;29;20109;-85
2022/03/09 00:42:47;;;;;;;5.38;4.20;;;;;;;16.41;30.89;93758.72;4900790;29;20376;-85
2022/03/09 00:45:13;;;;;;;6.38;4.80;;;;;;;16.41;30.59;93769.63;4916704;29;20031;-85
2022/03/09 00:47:38;;;;;;;5.57;3.92;;;;;;;16.40;31.10;93762.66;4900609;29;20059;-85
2022/03/09 00:50:04;;;;;;;7.22;4.35;;;;;;;16.40;30.76;93767.38;4932427;29;20035;-85
2022/03/09 00:52:30;;;;;;;5.25;4.07;;;;;;;16.43;30.55;93766.41;4900922;29;20051;-85
2022/03/09 00:54:55;;;;;;;6.10;4.38;;;;;;;16.39;30.97;93768.63;4949608;29;20074;-85
2022/03/09 00:57:21;;;;;;;5.72;4.22;;;;;;;16.44;30.77;93765.16;4900777;29;20031;-85
2022/03/09 00:59:46;;;;;;;5.32;4.05;;;;;;;16.41;31.23;93772.34;4932669;29;20491;-86
2022/03/09 01:02:11;;;;;;;7.28;4.50;;;;;;;16.44;30.85;93765.16;4907588;29;20050;-85
2022/03/09 01:04:37;;;;;;;5.50;3.85;;;;;;;16.42;30.90;93764.91;4913737;29;20035;-85
2022/03/09 01:07:03;;;;;;;5.50;3.85;;;;;;;16.45;30.64;93770.13;4897447;29;20055;-85
2022/03/09 01:09:28;;;;;;;7.55;4.10;;;;;;;16.39;30.70;93772.09;4897499;29;20036;-85
2022/03/09 01:11:54;;;;;;;5.68;3.78;;;;;;;16.40;30.76;93775.56;4882474;29;20055;-85
2022/03/09 01:14:19;;;;;;;5.50;4.13;;;;;;;16.39;30.84;93776.78;4913062;29;20059;-85
2022/03/09 01:16:45;;;;;;;4.25;3.45;;;;;;;16.39;30.78;93780.28;4898619;29;20130;-87
2022/03/09 01:19:11;;;;;;;5.20;3.60;;;;;;;16.39;30.98;93777.53;4897243;29;20043;-85
2022/03/09 01:21:36;;;;;;;5.25;3.75;;;;;;;16.39;30.87;93774.81;4913461;29;20080;-85
2022/03/09 01:24:02;;;;;;;5.93;3.95;;;;;;;16.39;30.79;93782.25;4897229;29;20273;-87
2022/03/09 01:26:27;;;;;;;6.75;3.70;;;;;;;16.38;31.03;93776.06;4925841;29;20040;-85
2022/03/09 01:28:54;;;;;;;5.15;3.67;;;;;;;16.37;30.56;93779.25;4916608;29;20050;-85
2022/03/09 01:31:19;;;;;;;5.28;3.90;;;;;;;16.40;31.04;93770.84;4932120;29;20098;-85
2022/03/09 01:33:45;;;;;;;5.40;3.47;;;;;;;16.39;30.93;93774.06;4916608;29;20047;-85
2022/03/09 01:36:10;;;;;;;5.28;3.95;;;;;;;16.38;30.94;93776.06;4899720;29;20419;-85
2022/03/09 01:38:35;;;;;;;5.95;3.75;;;;;;;16.36;30.89;93767.59;4903849;29;20039;-85
2022/03/09 01:41:01;;;;;;;5.72;3.88;;;;;;;16.41;31.11;93764.16;4936167;29;20035;-87
2022/03/09 01:43:26;;;;;;;4.82;3.63;;;;;;;16.37;30.99;93771.09;4904616;29;20056;-86
2022/03/09 01:45:51;;;;;;;5.32;3.63;;;;;;;16.35;30.89;93774.28;4935443;29;20054;-85
2022/03/09 01:48:17;;;;;;;5.15;3.72;;;;;;;16.39;30.98;93771.34;4904134;29;20031;-85
2022/03/09 01:50:43;;;;;;;7.72;3.55;;;;;;;16.36;30.87;93764.13;4904203;29;20054;-85
2022/03/09 01:53:09;;;;;;;5.03;3.47;;;;;;;16.34;31.04;93764.63;4925830;29;20068;-86
2022/03/09 01:55:35;;;;;;;4.88;3.38;;;;;;;16.37;30.86;93760.91;4898061;29;20079;-85
2022/03/09 01:58:01;;;;;;;4.50;3.38;;;;;;;16.39;31.09;93761.19;4913920;29;20048;-85
2022/03/09 02:00:26;;;;;;;5.15;3.58;;;;;;;16.34;30.93;93761.13;4898470;29;20296;-85
2022/03/09 02:02:51;;;;;;;4.72;3.50;;;;;;;16.35;30.47;93757.94;4901475;29;20090;-85
2022/03/09 02:05:17;;;;;;;5.65;4.03;;;;;;;16.37;31.07;93765.63;4915510;28;20087;-87
2022/03/09 02:10:26;;;;;;;3.63;3.17;;;;;;;16.35;30.92;93765.38;4912213;29;20043;-85
2022/03/09 02:12:52;;;;;;;5.03;3.40;;;;;;;16.32;30.86;93766.34;4882638;29;20052;-85
2022/03/09 02:15:17;;;;;;;5.78;3.15;;;;;;;16.32;30.94;93761.63;4884112;29;20072;-86
2022/03/09 02:17:43;;;;;;;8.52;3.63;;;;;;;16.33;30.99;93771.31;4900681;29;20570;-85
2022/03/09 02:20:08;;;;;;;6.35;3.85;;;;;;;16.38;30.88;93773.31;4915894;29;20043;-85
2022/03/09 02:22:34;;;;;;;6.50;3.20;;;;;;;16.35;31.05;93776.28;4932382;29;20040;-85
2022/03/09 02:25:01;;;;;;;4.90;3.15;;;;;;;16.36;30.68;93777.78;4931987;29;20040;-85
2022/03/09 02:27:26;;;;;;;5.00;3.47;;;;;;;16.33;30.48;93781.47;4899114;29;20036;-85
2022/03/09 02:29:52;;;;;;;5.63;4.07;;;;;;;16.35;30.71;93773.53;4916776;29;20046;-91
2022/03/09 02:32:18;;;;;;;5.00;3.33;;;;;;;16.32;30.90;93778.00;4931856;29;20055;-85
2022/03/09 02:34:43;;;;;;;7.68;3.47;;;;;;;16.32;30.82;93780.72;4916183;29;20103;-92
2022/03/09 02:37:09;;;;;;;3.45;3.05;;;;;;;16.33;30.80;93786.94;4931861;29;20150;-84
2022/03/09 02:39:35;;;;;;;4.15;3.20;;;;;;;16.30;31.01;93785.16;4896593;29;20480;-85
2022/03/09 02:42:00;;;;;;;3.42;2.85;;;;;;;16.31;31.01;93789.41;4897227;29;20033;-85
2022/03/09 02:44:25;;;;;;;4.63;3.45;;;;;;;16.31;31.07;93792.88;4912714;29;20055;-85
2022/03/09 02:46:51;;;;;;;4.63;3.22;;;;;;;16.33;30.97;93797.84;4924989;29;20033;-85
2022/03/09 02:49:16;;;;;;;5.93;3.35;;;;;;;16.32;30.88;93788.16;4895886;29;20032;-84
2022/03/09 02:51:42;;;;;;;6.43;3.38;;;;;;;16.35;30.88;93790.66;4901648;29;20036;-86
2022/03/09 02:54:07;;;;;;;5.20;3.38;;;;;;;16.32;31.01;93799.81;4915329;29;20040;-85
2022/03/09 02:56:33;;;;;;;4.68;3.33;;;;;;;16.29;30.89;93787.16;4915601;29;20423;-85
2022/03/09 02:58:58;;;;;;;4.53;3.30;;;;;;;16.31;30.69;93792.13;4916343;29;20380;-85
2022/03/09 03:01:24;;;;;;;4.30;2.78;;;;;;;16.30;30.80;93804.25;4898307;29;20051;-85
2022/03/09 03:03:49;;;;;;;5.03;3.35;;;;;;;16.30;30.71;93796.09;4931621;29;20032;-85
2022/03/09 03:06:15;;;;;;;4.85;3.60;;;;;;;16.29;30.83;93789.88;4915019;29;20613;-86
2022/03/09 03:08:40;;;;;;;5.05;3.38;;;;;;;16.33;30.67;93793.13;4915477;29;20043;-85
2022/03/09 03:11:08;;;;;;;4.93;3.25;;;;;;;16.31;30.99;93787.41;4899484;29;20079;-86
2022/03/09 03:13:39;;;;;;;3.72;2.90;;;;;;;16.30;30.99;93783.19;4931825;29;20036;-85
2022/03/09 03:16:05;;;;;;;4.68;3.20;;;;;;;16.29;30.70;93786.41;4915401;29;20040;-85
2022/03/09 03:18:30;;;;;;;3.25;2.65;;;;;;;16.34;30.92;93780.97;4915623;29;20039;-85
2022/03/09 03:20:56;;;;;;;6.97;3.63;;;;;;;16.30;30.67;93777.72;4914952;29;20028;-85
2022/03/09 03:23:22;;;;;;;3.97;3.13;;;;;;;16.29;31.18;93776.25;4915146;29;20047;-85
2022/03/09 03:25:49;;;;;;;3.63;2.90;;;;;;;16.30;30.81;93775.00;4915573;29;20043;-85
2022/03/09 03:28:14;;;;;;;4.13;2.92;;;;;;;16.29;30.75;93787.16;4911460;29;20040;-85
2022/03/09 03:30:40;;;;;;;4.07;2.75;;;;;;;16.28;30.91;93782.19;4880748;29;20044;-85
2022/03/09 03:33:05;;;;;;;4.03;2.88;;;;;;;16.30;30.84;93780.47;4911695;29;20048;-86
2022/03/09 03:35:30;;;;;;;4.30;2.75;;;;;;;16.30;30.96;93785.16;4927885;29;20040;-85
2022/03/09 03:37:56;;;;;;;4.18;2.72;;;;;;;16.30;30.72;93790.63;4896150;29;20032;-85
2022/03/09 03:40:21;;;;;;;3.22;2.75;;;;;;;16.30;30.89;93785.91;4880313;29;22235;-85
2022/03/09 03:42:47;;;;;;;4.60;2.90;;;;;;;16.28;31.04;93787.63;4896304;29;20358;-85
2022/03/09 03:45:12;;;;;;;3.47;3.03;;;;;;;16.28;30.98;93774.75;4898180;29;20035;-84
2022/03/09 03:47:37;;;;;;;3.92;3.10;;;;;;;16.27;30.66;93772.50;4914134;29;20410;-86
2022/03/09 03:50:04;;;;;;;3.67;2.80;;;;;;;16.29;30.49;93776.25;4914262;29;20106;-85
2022/03/09 03:52:29;;;;;;;3.45;2.65;;;;;;;16.31;30.76;93781.22;4930195;29;20099;-89
2022/03/09 03:54:54;;;;;;;5.13;3.33;;;;;;;16.27;30.86;93778.69;4915236;29;20040;-85
2022/03/09 03:57:20;;;;;;;3.90;2.85;;;;;;;16.31;30.94;93784.69;4898318;29;20392;-88
2022/03/09 03:59:45;;;;;;;4.05;2.80;;;;;;;16.28;31.03;93769.28;4914368;29;20051;-92
2022/03/09 04:02:11;;;;;;;3.92;2.83;;;;;;;16.26;30.85;93776.47;4926051;29;20040;-85
2022/03/09 04:04:36;;;;;;;3.88;3.00;;;;;;;16.27;30.89;93775.22;4896174;29;20032;-85
2022/03/09 04:07:02;;;;;;;3.78;2.72;;;;;;;16.29;30.92;93778.22;4894811;29;20037;-85
2022/03/09 04:09:27;;;;;;;2.88;2.30;;;;;;;16.31;31.10;93768.31;4911135;29;20136;-85
2022/03/09 04:11:52;;;;;;;4.05;2.72;;;;;;;16.29;30.85;93775.50;4895523;29;20043;-85
2022/03/09 04:14:22;;;;;;;3.38;2.53;;;;;;;16.28;31.00;93779.44;4879519;29;20047;-89
2022/03/09 04:16:48;;;;;;;4.00;2.70;;;;;;;16.32;31.08;93780.72;4910938;29;20028;-85
2022/03/09 04:19:13;;;;;;;3.72;2.50;;;;;;;16.27;31.18;93778.69;4895121;29;20039;-85
2022/03/09 04:21:38;;;;;;;4.15;2.83;;;;;;;16.30;30.61;93780.47;4912270;29;20048;-85
2022/03/09 04:24:05;;;;;;;3.30;2.60;;;;;;;16.30;31.21;93785.91;4880006;29;20051;-85
2022/03/09 04:26:31;;;;;;;4.30;2.80;;;;;;;16.32;31.00;93780.72;4923913;29;20058;-85
2022/03/09 04:28:56;;;;;;;3.80;2.70;;;;;;;16.29;30.69;93789.13;4911086;29;20507;-85
2022/03/09 04:31:21;;;;;;;4.03;2.92;;;;;;;16.32;31.15;93786.19;4910467;29;20099;-85
2022/03/09 04:33:47;;;;;;;5.03;2.72;;;;;;;16.30;30.88;93787.91;4895651;29;20597;-86
2022/03/09 04:36:12;;;;;;;3.55;2.85;;;;;;;16.35;30.94;93792.66;4879260;29;20048;-85
2022/03/09 04:38:37;;;;;;;3.38;2.65;;;;;;;16.31;30.86;93794.84;4880076;29;20099;-85
2022/03/09 04:41:03;;;;;;;4.00;2.85;;;;;;;16.29;30.97;93795.34;4882013;29;20039;-85
2022/03/09 04:43:28;;;;;;;4.13;2.45;;;;;;;16.33;30.76;93792.38;4929429;29;20071;-85
2022/03/09 04:45:54;;;;;;;3.88;2.40;;;;;;;16.33;30.70;93804.03;4913923;29;20047;-90
2022/03/09 04:48:20;;;;;;;5.18;2.47;;;;;;;16.29;30.71;93803.53;4913393;29;20048;-85
2022/03/09 04:50:45;;;;;;;4.85;2.70;;;;;;;16.27;30.86;93797.81;4929824;29;20043;-89
2022/03/09 04:53:10;;;;;;;3.75;3.05;;;;;;;16.30;31.11;93804.25;4898537;29;20037;-86
2022/03/09 04:55:36;;;;;;;3.55;2.60;;;;;;;16.29;30.98;93800.03;4876169;29;20041;-85
2022/03/09 04:58:01;;;;;;;4.47;3.03;;;;;;;16.27;30.89;93795.06;4860892;29;20032;-87
2022/03/09 05:00:27;;;;;;;4.43;2.92;;;;;;;16.26;30.91;93801.75;4877320;29;20041;-85
2022/03/09 05:02:52;;;;;;;3.30;2.47;;;;;;;16.25;31.00;93803.00;4912066;29;20028;-85
2022/03/09 05:05:18;;;;;;;4.28;2.80;;;;;;;16.28;30.82;93804.00;4879017;29;20458;-85
2022/03/09 05:07:43;;;;;;;5.05;3.03;;;;;;;16.25;31.04;93805.72;4873887;29;20104;-91
2022/03/09 05:10:09;;;;;;;3.90;2.40;;;;;;;16.30;30.92;93807.00;4902031;29;20118;-87
2022/03/09 05:12:35;;;;;;;3.78;2.92;;;;;;;16.30;30.68;93809.72;4893495;29;20032;-88
2022/03/09 05:15:00;;;;;;;3.17;2.10;;;;;;;16.30;30.64;93804.25;4902980;29;20246;-86
2022/03/09 05:17:26;;;;;;;3.53;2.63;;;;;;;16.32;30.80;93810.00;4900689;29;20095;-88
2022/03/09 05:19:51;;;;;;;4.28;3.10;;;;;;;16.30;30.78;93805.00;4901545;29;20044;-86
2022/03/09 05:22:17;;;;;;;5.13;3.30;;;;;;;16.29;30.87;93813.69;4909292;29;20032;-84
2022/03/09 05:24:42;;;;;;;9.90;3.80;;;;;;;16.24;30.89;93815.13;4886803;29;20419;-87
2022/03/09 05:27:08;;;;;;;9.65;3.88;;;;;;;16.25;30.84;93804.97;4888841;29;20044;-88
2022/03/09 05:29:33;;;;;;;6.07;3.22;;;;;;;16.27;31.15;93813.41;4888405;29;20388;-85
2022/03/09 05:31:58;;;;;;;21.73;12.77;;;;;;;16.30;31.19;93818.66;4895403;29;20603;-85
2022/03/09 05:34:24;;;;;;;9.63;4.68;;;;;;;16.34;31.41;93818.44;4865553;29;20413;-86
2022/03/09 05:36:49;;;;;;;8.65;5.72;;;;;;;16.36;31.28;93821.44;4875828;29;20456;-86
2022/03/09 05:39:15;;;;;;;12.77;9.77;;;;;;;16.41;31.10;93818.00;4879928;29;20415;-85
2022/03/09 05:41:40;;;;;;;21.27;10.80;;;;;;;16.43;30.34;93831.88;4896252;29;20411;-87
2022/03/09 05:44:07;;;;;;;15.25;9.50;;;;;;;16.44;31.18;93834.13;4890130;29;20412;-94
2022/03/09 05:46:36;;;;;;;11.82;9.05;;;;;;;16.46;31.47;93830.88;4911108;29;20052;-92
2022/03/09 05:49:02;;;;;;;21.13;10.65;;;;;;;16.48;30.77;93830.41;4875389;29;20048;-91
2022/03/09 05:51:27;;;;;;;21.20;11.27;;;;;;;16.43;30.69;93832.63;4893522;29;20044;-89
2022/03/09 05:53:53;;;;;;;15.80;8.27;;;;;;;16.41;29.54;93837.84;4912027;29;20047;-91
2022/03/09 05:56:18;;;;;;;39.47;11.23;;;;;;;16.24;26.42;93842.41;4886793;28;20044;-88
2022/03/09 05:58:44;;;;;;;42.92;13.52;;;;;;;16.21;26.36;93835.22;4892552;29;20047;-91
2022/03/09 06:01:09;;;;;;;81.55;20.67;;;;;;;16.15;26.18;93836.41;4897249;29;20040;-92
2022/03/09 06:03:35;;;;;;;73.00;17.92;;;;;;;16.13;26.06;93841.59;4891540;29;20420;-92
2022/03/09 06:06:00;;;;;;;85.22;21.13;;;;;;;16.16;26.37;93848.81;4915378;29;20044;-93
2022/03/09 06:08:26;;;;;;;96.80;23.70;;;;;;;16.19;27.57;93842.41;4913935;29;20120;-91
2022/03/09 06:10:52;;;;;;;84.50;20.73;;;;;;;16.21;27.90;93843.41;4918171;29;20040;-91
2022/03/09 06:13:18;;;;;;;64.53;22.58;;;;;;;16.29;28.75;93855.34;4915894;28;20051;-92
2022/03/09 06:15:44;;;;;;;61.30;21.35;;;;;;;16.31;29.00;93852.13;4918505;29;20407;-90
2022/03/09 06:18:11;;;;;;;86.60;26.23;;;;;;;16.30;29.17;93856.09;4933569;28;20064;-88
2022/03/09 06:20:36;;;;;;;84.40;23.05;;;;;;;16.30;27.96;93850.66;4921687;29;20039;-89
2022/03/09 06:23:02;;;;;;;52.00;15.30;;;;;;;16.03;25.42;93858.13;4904703;29;20039;-85
2022/03/09 06:25:27;;;;;;;46.63;12.20;;;;;;;15.93;24.40;93856.09;4923421;29;20036;-88
2022/03/09 06:27:53;;;;;;;55.78;15.23;;;;;;;16.01;24.40;93857.16;4906213;29;20036;-91
2022/03/09 06:30:19;;;;;;;62.58;18.80;;;;;;;15.98;24.45;93850.69;4923717;29;20048;-91
2022/03/09 06:32:45;;;;;;;64.38;21.10;;;;;;;16.01;24.73;93866.09;4915235;29;20869;-87
2022/03/09 06:35:11;;;;;;;82.55;27.27;;;;;;;16.07;24.84;93855.94;4904194;28;20039;-86
2022/03/09 06:37:36;;;;;;;58.90;24.05;;;;;;;16.14;25.87;93859.47;4917184;29;20042;-87
2022/03/09 06:40:02;;;;;;;61.42;22.25;;;;;;;16.19;26.54;93853.31;4902208;29;20044;-86
2022/03/09 06:42:29;;;;;;;41.35;17.83;;;;;;;16.22;27.80;93861.28;4926137;29;20068;-88
2022/03/09 06:44:54;;;;;;;43.80;18.02;;;;;;;16.24;27.47;93861.50;4901239;29;20075;-86
2022/03/09 06:47:20;;;;;;;113.90;30.33;;;;;;;16.25;28.03;93865.00;4914441;29;20032;-87
2022/03/09 06:49:45;;;;;;;78.63;23.70;;;;;;;16.29;27.99;93863.53;4915537;29;20062;-87
2022/03/09 06:52:11;;;;;;;57.15;19.65;;;;;;;16.32;28.27;93865.28;4926362;29;20482;-85
2022/03/09 06:54:36;;;;;;;58.42;20.42;;;;;;;16.30;28.52;93862.31;4905869;29;20050;-87
2022/03/09 06:57:02;;;;;;;52.60;22.02;;;;;;;16.32;27.88;93862.56;4906104;29;20554;-87
2022/03/09 06:59:27;;;;;;;58.65;24.58;;;;;;;16.36;28.08;93857.63;4916807;29;20040;-85
2022/03/09 07:01:53;;;;;;;131.38;35.53;;;;;;;16.41;28.17;93867.84;4908000;29;20040;-87
2022/03/09 07:04:18;;;;;;;116.20;33.53;;;;;;;16.41;28.09;93865.13;4893884;28;20542;-85
2022/03/09 07:06:44;;;;;;;100.68;35.20;;;;;;;16.42;28.16;93872.06;4904070;29;20050;-89
2022/03/09 07:09:09;;;;;;;138.65;41.40;;;;;;;16.46;28.24;93858.94;4916223;28;20041;-88
2022/03/09 07:11:35;;;;;;;112.40;35.83;;;;;;;16.52;28.60;93875.34;4913128;29;20032;-86
2022/03/09 07:14:00;;;;;;;104.15;34.63;;;;;;;16.51;28.08;93873.84;4895608;29;20067;-87
2022/03/09 07:16:25;;;;;;;104.25;34.17;;;;;;;16.54;28.34;93872.13;4935114;29;20699;-90
2022/03/09 07:18:51;;;;;;;93.35;30.85;;;;;;;16.57;28.25;93869.19;4919998;29;20043;-91
2022/03/09 07:21:17;;;;;;;91.05;32.42;;;;;;;16.57;28.36;93873.88;4921005;29;20043;-89
2022/03/09 07:23:43;;;;;;;83.78;30.77;;;;;;;16.59;28.38;93877.63;4903026;29;20079;-87
2022/03/09 07:26:08;;;;;;;76.00;30.27;;;;;;;16.61;28.22;93883.34;4921955;29;20132;-87
2022/03/09 07:28:34;;;;;;;64.45;27.10;;;;;;;16.62;28.66;93878.63;4925037;29;20419;-92
2022/03/09 07:30:59;;;;;;;76.45;26.75;;;;;;;16.62;28.43;93875.91;4929702;29;20036;-88
2022/03/09 07:33:24;;;;;;;66.90;26.70;;;;;;;16.68;28.38;93874.72;4903955;28;20043;-89
2022/03/09 07:35:50;;;;;;;70.30;26.67;;;;;;;16.67;28.15;93884.13;4901333;29;20040;-87
2022/03/09 07:38:15;;;;;;;53.83;23.35;;;;;;;16.65;28.39;93874.97;4906580;29;20554;-88
2022/03/09 07:40:41;;;;;;;72.13;25.13;;;;;;;16.69;28.54;93886.38;4900674;29;20034;-88
2022/03/09 07:43:07;;;;;;;59.15;26.50;;;;;;;16.71;28.44;93889.38;4908909;28;20086;-88
2022/03/09 07:45:32;;;;;;;120.40;41.17;;;;;;;16.73;28.53;93892.38;4931509;28;20079;-86
2022/03/09 07:47:58;;;;;;;120.03;45.78;;;;;;;16.74;28.43;93893.88;4914883;29;20046;-86
2022/03/09 07:50:23;;;;;;;133.75;50.78;;;;;;;16.74;28.38;93886.41;4899410;29;20051;-86
2022/03/09 07:52:49;;;;;;;108.70;52.17;;;;;;;16.76;28.78;93881.22;4932284;29;20036;-86
2022/03/09 07:55:14;;;;;;;169.88;83.20;;;;;;;16.75;28.61;93887.16;4932481;28;20039;-88
2022/03/09 07:57:40;;;;;;;153.27;79.28;;;;;;;16.76;28.82;93881.22;4916820;29;20028;-85
2022/03/09 08:00:06;;;;;;;318.55;110.07;;;;;;;16.82;28.47;93881.25;4910566;29;20075;-85
2022/03/09 08:02:31;;;;;;;176.25;87.35;;;;;;;16.77;28.68;93884.69;4929428;29;20047;-85
2022/03/09 08:04:57;;;;;;;185.40;95.30;;;;;;;16.81;28.90;93879.00;4921976;29;20051;-86
2022/03/09 08:07:22;;;;;;;205.00;101.15;;;;;;;16.81;28.48;93885.22;4920467;29;20112;-86
2022/03/09 08:09:48;;;;;;;183.38;93.70;;;;;;;16.82;28.79;93877.78;4914335;29;20048;-86
2022/03/09 08:12:13;;;;;;;162.43;84.03;;;;;;;16.81;28.85;93884.47;4926252;29;20120;-84
2022/03/09 08:14:39;;;;;;;195.18;95.18;;;;;;;16.85;28.78;93871.34;4914122;29;20043;-87
2022/03/09 08:17:04;;;;;;;170.48;88.15;;;;;;;16.87;28.52;93882.53;4924474;29;20040;-87
2022/03/09 08:19:30;;;;;;;183.25;90.95;;;;;;;16.87;28.98;93877.81;4907884;29;20058;-85
2022/03/09 08:21:55;;;;;;;173.57;88.88;;;;;;;16.87;29.03;93877.81;4915170;29;20040;-89
2022/03/09 08:24:21;;;;;;;250.68;90.93;;;;;;;16.88;28.68;93873.09;4902531;29;20047;-85
2022/03/09 08:26:47;;;;;;;187.20;87.13;;;;;;;16.86;28.73;93879.06;4929421;29;20036;-85
2022/03/09 08:29:12;;;;;;;167.63;87.28;;;;;;;16.87;28.86;93875.09;4911611;29;20058;-91
2022/03/09 08:31:37;;;;;;;179.13;84.43;;;;;;;16.89;28.98;93882.78;4914276;29;20054;-84
2022/03/09 08:34:03;;;;;;;201.20;104.05;;;;;;;16.85;29.03;93879.53;4913858;29;20495;-85
2022/03/09 08:36:29;;;;;;;217.75;113.90;;;;;;;16.90;28.97;93873.34;4914045;29;20095;-89
2022/03/09 08:38:55;;;;;;;228.18;118.03;;;;;;;16.86;29.12;93870.84;4897943;29;20558;-84
2022/03/09 08:41:25;;;;;;;234.98;122.68;;;;;;;16.87;28.93;93877.06;4928252;29;20131;-84
2022/03/09 08:43:50;;;;;;;284.73;157.48;;;;;;;16.92;28.78;93879.81;4914658;29;20095;-85
2022/03/09 08:46:16;;;;;;;219.68;104.85;;;;;;;16.84;27.25;93872.56;4902158;29;20079;-85
2022/03/09 08:48:41;;;;;;;257.75;126.88;;;;;;;16.84;27.32;93875.31;4924188;29;20036;-86
2022/03/09 08:51:07;;;;;;;298.50;141.43;;;;;;;16.85;27.18;93868.63;4928677;29;20507;-86
2022/03/09 08:53:33;;;;;;;266.60;136.38;;;;;;;16.86;27.17;93876.31;4896481;29;20522;-90
2022/03/09 08:55:59;;;;;;;276.77;138.75;;;;;;;16.85;27.50;93876.81;4883952;29;20032;-90
2022/03/09 08:58:24;;;;;;;223.30;113.53;;;;;;;16.87;27.89;93866.16;4893694;29;20518;-87
2022/03/09 09:00:50;;;;;;;297.40;133.07;;;;;;;16.91;28.33;93875.56;4894302;29;20214;-87
2022/03/09 09:03:15;;;;;;;327.65;140.70;;;;;;;16.92;28.05;93877.06;4892838;29;20036;-83
2022/03/09 09:05:41;;;;;;;348.60;140.43;;;;;;;16.91;28.51;93878.31;4909946;29;20048;-85
2022/03/09 09:08:06;;;;;;;243.15;119.10;;;;;;;16.92;28.69;93879.06;4893665;29;20040;-84
2022/03/09 09:10:33;;;;;;;289.45;123.43;;;;;;;16.92;28.36;93876.31;4892671;29;20484;-83
2022/03/09 09:12:58;;;;;;;248.57;118.32;;;;;;;16.92;28.53;93888.00;4893927;29;20064;-84
2022/03/09 09:15:25;;;;;;;225.43;110.38;;;;;;;16.91;28.76;93893.94;4896617;29;20075;-93
2022/03/09 09:17:59;;;;;;;232.52;111.93;;;;;;;16.96;28.56;93895.97;4908543;29;20198;-88
2022/03/09 09:20:25;;;;;;;349.30;147.98;;;;;;;16.96;28.42;93880.31;4878343;29;20059;-86
2022/03/09 09:22:53;;;;;;;221.25;102.88;;;;;;;16.95;28.49;93880.81;4896402;29;20063;-86
2022/03/09 09:25:18;;;;;;;199.05;98.65;;;;;;;16.94;28.81;93879.31;4895784;29;20037;-86
2022/03/09 09:27:44;;;;;;;217.73;104.68;;;;;;;16.98;28.80;93880.59;4880331;29;20041;-88
2022/03/09 09:30:10;;;;;;;157.27;82.50;;;;;;;16.91;27.62;93886.50;4869972;29;20072;-86
2022/03/09 09:32:35;;;;;;;204.27;98.70;;;;;;;16.92;27.68;93884.50;4881753;29;20043;-90
2022/03/09 09:35:00;;;;;;;199.80;92.47;;;;;;;16.90;27.82;93884.25;4889665;29;20496;-87
2022/03/09 09:37:27;;;;;;;177.15;87.35;;;;;;;16.88;27.69;93873.84;4909358;29;20460;-86
2022/03/09 09:39:53;;;;;;;193.13;91.07;;;;;;;16.92;28.29;93882.53;4902564;29;20048;-85
2022/03/09 09:42:22;;;;;;;148.02;79.82;;;;;;;16.97;27.85;93886.53;4876813;29;20044;-93
2022/03/09 09:44:47;;;;;;;151.10;79.35;;;;;;;16.96;28.15;93885.03;4895709;29;20594;-84
2022/03/09 09:47:14;;;;;;;397.48;128.82;;;;;;;16.99;28.24;93881.34;4907596;29;20041;-84
2022/03/09 09:49:40;;;;;;;185.45;84.97;;;;;;;16.95;28.22;93883.53;4886033;29;20081;-85
2022/03/09 09:52:06;;;;;;;162.52;81.68;;;;;;;16.99;27.84;93879.34;4883869;29;20127;-93
2022/03/09 09:54:31;;;;;;;166.15;82.80;;;;;;;16.99;28.17;93884.06;4918331;29;20044;-92
2022/03/09 09:56:56;;;;;;;150.52;70.45;;;;;;;16.92;26.97;93890.72;4903897;28;20130;-85
2022/03/09 09:59:22;;;;;;;172.80;70.75;;;;;;;16.93;27.71;93888.75;4932476;29;20052;-88
2022/03/09 10:01:48;;;;;;;139.88;65.75;;;;;;;16.93;27.53;93884.03;4919536;29;20043;-87
2022/03/09 10:04:14;;;;;;;175.75;75.28;;;;;;;16.90;27.43;93882.28;4914652;29;20066;-86
2022/03/09 10:06:40;;;;;;;159.82;72.30;;;;;;;16.91;27.60;93885.75;4932630;29;20468;-85
2022/03/09 10:09:06;;;;;;;137.23;66.40;;;;;;;16.92;27.66;93879.81;4940186;29;20036;-87
2022/03/09 10:11:50;;;;;;;128.10;66.07;;;;;;;16.90;27.58;93882.28;4927848;29;20048;-85
2022/03/09 10:14:17;;;;;;;121.25;65.47;;;;;;;16.92;27.67;93870.88;4946716;29;20050;-87
2022/03/09 10:17:05;;;;;;;121.45;60.55;;;;;;;16.90;27.85;93876.81;4935726;29;20106;-87
2022/03/09 10:19:32;;;;;;;134.27;64.05;;;;;;;16.91;27.73;93885.75;4925905;29;20927;-86
2022/03/09 10:21:58;;;;;;;127.25;62.35;;;;;;;16.92;27.75;93877.06;4930455;29;20032;-88
2022/03/09 10:24:33;;;;;;;81.28;37.67;;;;;;;16.86;25.67;93876.31;4900200;29;20559;-86
2022/03/09 10:27:00;;;;;;;107.75;47.78;;;;;;;16.83;26.10;93874.56;4919278;29;20047;-88
2022/03/09 10:29:25;;;;;;;89.10;42.78;;;;;;;16.83;25.22;93865.63;4917715;29;20470;-88
2022/03/09 10:31:51;;;;;;;97.03;42.65;;;;;;;16.83;25.31;93860.16;4905898;29;20090;-87
2022/03/09 10:34:20;;;;;;;100.43;44.97;;;;;;;16.82;26.29;93864.13;4919548;29;20407;-88
2022/03/09 10:37:06;;;;;;;105.40;45.67;;;;;;;16.85;26.10;93868.63;4901153;29;20068;-88
2022/03/09 10:39:36;;;;;;;102.57;49.80;;;;;;;16.79;26.14;93866.59;4895785;29;20040;-88
2022/03/09 10:42:03;;;;;;;113.22;48.55;;;;;;;16.77;24.89;93865.59;4920086;29;20074;-86
2022/03/09 10:44:45;;;;;;;101.50;50.13;;;;;;;16.77;25.17;93860.13;4931485;29;20039;-86
2022/03/09 10:47:10;;;;;;;115.70;46.92;;;;;;;16.82;25.23;93856.69;4903623;29;20098;-87
2022/03/09 10:49:36;;;;;;;97.25;47.22;;;;;;;16.79;25.60;93849.47;4916437;29;20044;-86
2022/03/09 10:52:01;;;;;;;122.35;55.08;;;;;;;16.77;26.10;93851.94;4902105;29;20407;-87
2022/03/09 10:54:32;;;;;;;147.88;67.75;;;;;;;16.81;25.96;93846.25;4919140;29;20043;-87
2022/03/09 10:57:10;;;;;;;168.73;82.80;;;;;;;16.80;26.16;93842.78;4904653;29;20051;-87
2022/03/09 10:59:51;;;;;;;260.55;102.65;;;;;;;16.84;26.74;93831.63;4913821;29;20047;-86
2022/03/09 11:02:20;;;;;;;318.95;98.43;;;;;;;16.81;26.65;93844.28;4948249;29;20130;-86
2022/03/09 11:05:08;;;;;;;195.10;88.10;;;;;;;16.85;26.70;93841.31;4916562;29;20123;-88
2022/03/09 11:07:35;;;;;;;174.77;77.95;;;;;;;16.86;27.43;93835.34;4929432;29;20139;-84
2022/03/09 11:10:00;;;;;;;163.70;74.20;;;;;;;16.82;26.67;93834.09;4918512;29;20494;-88
2022/03/09 11:12:26;;;;;;;128.15;59.25;;;;;;;16.87;26.90;93827.91;4916183;29;20076;-87
2022/03/09 11:14:51;;;;;;;126.90;55.80;;;;;;;16.88;26.58;93829.41;4929677;29;20038;-87
2022/03/09 11:17:21;;;;;;;108.05;53.17;;;;;;;16.87;26.56;93825.19;4916587;29;20055;-87
2022/03/09 11:19:48;;;;;;;121.40;58.25;;;;;;;16.94;26.41;93827.44;4903823;29;20095;-85